Time;durP1;ratioP1;P1;durP2;ratioP2;P2;SDS_P1;SDS_P2;PMS_P1;PMS_P2;Temp;Humidity;BMP_temperature;BMP_pressure;BME280_temperature;BME280_humidity;BME280_pressure;Samples;Min_cycle;Max_cycle;Signal;HPM_P1;HPM_P2
2023/09/04 00:01:39;;;;;;;9.00;4.70;;;;;;;19.98;82.88;95052.66;5065243;28;20445;-79
2023/09/04 00:04:07;;;;;;;5.10;4.20;;;;;;;19.68;84.05;95051.81;5102332;28;20473;-79
2023/09/04 00:06:33;;;;;;;4.50;4.10;;;;;;;19.66;85.71;95069.81;5100435;28;20442;-80
2023/09/04 00:09:04;;;;;;;8.60;4.20;;;;;;;19.64;84.63;95065.63;5099955;28;20758;-79
2023/09/04 00:11:31;;;;;;;6.87;4.53;;;;;;;19.64;85.48;95060.31;5097705;28;20509;-79
2023/09/04 00:13:58;;;;;;;5.23;4.73;;;;;;;19.78;87.44;95049.69;5096330;28;20824;-78
2023/09/04 00:16:25;;;;;;;6.50;4.13;;;;;;;19.87;85.28;95045.09;5096341;28;20951;-78
2023/09/04 00:18:52;;;;;;;4.03;3.67;;;;;;;20.01;84.58;95038.13;5096256;28;20464;-78
2023/09/04 00:21:18;;;;;;;6.00;4.70;;;;;;;19.99;87.86;95040.16;5096298;28;20442;-78
2023/09/04 00:23:45;;;;;;;8.40;4.60;;;;;;;20.05;89.15;95037.59;5095890;28;20493;-78
2023/09/04 00:26:13;;;;;;;10.67;4.63;;;;;;;20.26;89.93;95023.50;5095980;28;20799;-78
2023/09/04 00:28:40;;;;;;;5.27;4.40;;;;;;;20.48;89.60;95027.06;5044195;28;20453;-78
2023/09/04 00:31:07;;;;;;;4.60;4.20;;;;;;;20.62;88.41;95022.72;5096065;28;20435;-78
2023/09/04 00:33:34;;;;;;;4.37;3.90;;;;;;;20.73;87.91;95014.22;5095843;28;20951;-78
2023/09/04 00:36:02;;;;;;;6.63;3.90;;;;;;;20.83;85.64;94996.09;5096526;28;20443;-78
2023/09/04 00:38:29;;;;;;;5.97;4.17;;;;;;;20.63;84.35;94987.03;5096087;28;20456;-78
2023/09/04 00:40:56;;;;;;;5.77;4.83;;;;;;;20.51;85.14;94986.69;5095824;28;20865;-78
2023/09/04 00:43:24;;;;;;;4.80;4.30;;;;;;;20.59;86.69;94991.94;5096020;28;20436;-78
2023/09/04 00:45:51;;;;;;;10.40;4.43;;;;;;;20.75;87.35;94977.50;5095883;28;20447;-78
2023/09/04 00:48:19;;;;;;;6.30;4.43;;;;;;;20.90;86.67;94966.78;5096022;28;20439;-78
2023/09/04 00:50:46;;;;;;;10.43;4.03;;;;;;;20.98;86.25;94958.66;5095539;28;20475;-78
2023/09/04 00:53:13;;;;;;;6.40;4.47;;;;;;;21.00;86.29;94936.09;5095507;28;20475;-77
2023/09/04 00:55:40;;;;;;;5.13;4.40;;;;;;;20.99;86.04;94928.28;5095686;28;20441;-78
2023/09/04 00:58:07;;;;;;;5.27;4.60;;;;;;;21.01;86.16;94926.25;5095253;28;20436;-78
2023/09/04 01:00:35;;;;;;;4.10;3.73;;;;;;;21.02;86.67;94936.72;5095227;28;20491;-78
2023/09/04 01:03:04;;;;;;;4.40;4.00;;;;;;;21.02;86.30;94928.72;5095677;28;20964;-78
2023/09/04 01:05:32;;;;;;;4.73;4.40;;;;;;;21.05;86.38;94938.19;5095483;28;20522;-79
2023/09/04 01:08:01;;;;;;;5.03;3.67;;;;;;;21.08;86.74;94931.63;5095189;28;20454;-78
2023/09/04 01:10:35;;;;;;;8.33;4.40;;;;;;;21.06;87.34;94929.16;5095553;28;20457;-78
2023/09/04 01:13:10;;;;;;;5.20;3.77;;;;;;;21.07;86.58;94920.13;5095216;28;20442;-78
2023/09/04 01:15:39;;;;;;;5.13;4.50;;;;;;;21.06;86.30;94923.81;5042915;28;20442;-78
2023/09/04 01:18:06;;;;;;;4.13;3.70;;;;;;;21.08;85.99;94931.63;5095385;28;20432;-78
2023/09/04 01:20:35;;;;;;;4.30;3.90;;;;;;;21.09;86.22;94918.09;5095176;28;20492;-78
2023/09/04 01:23:02;;;;;;;4.13;3.73;;;;;;;21.12;85.68;94923.06;5094144;28;20444;-78
2023/09/04 01:25:40;;;;;;;6.80;4.30;;;;;;;21.19;85.28;94923.09;5095565;28;20899;-78
2023/09/04 01:28:14;;;;;;;4.90;4.27;;;;;;;21.21;85.52;94910.38;5095032;28;20441;-78
2023/09/04 01:30:48;;;;;;;6.53;4.03;;;;;;;21.22;85.52;94914.72;5096054;28;20457;-78
2023/09/04 01:33:20;;;;;;;5.60;4.23;;;;;;;21.13;84.81;94915.88;5094992;28;20445;-78
2023/09/04 01:35:50;;;;;;;11.00;4.40;;;;;;;21.10;84.85;94908.25;5095338;28;20439;-78
2023/09/04 01:38:18;;;;;;;5.33;4.30;;;;;;;21.00;85.32;94908.59;5095048;28;20815;-78
2023/09/04 01:40:45;;;;;;;5.13;3.97;;;;;;;20.89;85.39;94901.13;5094673;28;20487;-78
2023/09/04 01:43:11;;;;;;;4.10;3.80;;;;;;;20.91;85.78;94904.41;5094622;28;20450;-77
2023/09/04 01:45:38;;;;;;;4.50;4.10;;;;;;;20.84;86.10;94893.69;5042480;28;20445;-78
2023/09/04 01:48:06;;;;;;;5.37;4.23;;;;;;;20.77;85.26;94892.81;5094277;28;20438;-77
2023/09/04 01:50:33;;;;;;;4.23;3.83;;;;;;;20.77;84.56;94887.47;5094921;28;20458;-78
2023/09/04 01:53:01;;;;;;;4.20;3.90;;;;;;;20.69;84.78;94893.78;5093986;28;20503;-78
2023/09/04 01:55:28;;;;;;;4.70;4.30;;;;;;;20.71;85.06;94890.91;5058856;28;20938;-79
2023/09/04 01:57:55;;;;;;;4.53;4.13;;;;;;;20.79;84.76;94892.59;5058878;28;20452;-78
2023/09/04 02:00:22;;;;;;;6.30;4.10;;;;;;;20.76;85.20;94895.66;5094331;28;20491;-78
2023/09/04 02:02:49;;;;;;;4.97;4.43;;;;;;;20.68;84.34;94902.78;5058512;28;20432;-78
2023/09/04 02:05:16;;;;;;;5.03;4.57;;;;;;;20.65;84.82;94902.34;5094250;28;21003;-78
2023/09/04 02:07:43;;;;;;;9.63;4.73;;;;;;;20.61;84.90;94906.41;5094384;28;20451;-78
2023/09/04 02:10:11;;;;;;;4.57;4.10;;;;;;;20.63;85.10;94907.06;5094634;28;20444;-77
2023/09/04 02:12:38;;;;;;;5.60;4.13;;;;;;;20.65;85.79;94910.34;5094492;28;20459;-78
2023/09/04 02:15:06;;;;;;;5.53;4.33;;;;;;;20.57;85.39;94903.31;5058165;28;20439;-78
2023/09/04 02:17:33;;;;;;;4.53;4.17;;;;;;;20.52;85.45;94904.88;5042088;28;20518;-78
2023/09/04 02:20:00;;;;;;;4.83;4.43;;;;;;;20.51;85.58;94909.38;5093414;28;21032;-79
2023/09/04 02:22:27;;;;;;;5.27;4.40;;;;;;;20.52;85.41;94921.69;5093699;28;20431;-79
2023/09/04 02:24:54;;;;;;;4.40;4.10;;;;;;;20.55;86.08;94904.53;5093718;28;20479;-78
2023/09/04 02:27:22;;;;;;;5.40;4.27;;;;;;;20.59;85.68;94911.94;5093724;28;20466;-78
2023/09/04 02:29:49;;;;;;;4.70;4.30;;;;;;;20.68;84.78;94907.28;5041664;28;20448;-78
2023/09/04 02:32:16;;;;;;;6.20;4.07;;;;;;;20.67;84.21;94909.13;5093284;28;20460;-78
2023/09/04 02:34:43;;;;;;;5.23;4.20;;;;;;;20.59;85.40;94901.28;5093668;28;20449;-79
2023/09/04 02:37:10;;;;;;;6.10;4.90;;;;;;;20.59;86.13;94900.44;5093891;28;20455;-78
2023/09/04 02:39:36;;;;;;;4.33;4.00;;;;;;;20.67;85.40;94902.97;5093534;28;20442;-78
2023/09/04 02:42:03;;;;;;;5.63;4.27;;;;;;;20.69;85.39;94890.28;5092806;28;20440;-78
2023/09/04 02:44:32;;;;;;;4.20;3.90;;;;;;;20.68;84.90;94893.97;5093908;28;20445;-79
2023/09/04 02:46:59;;;;;;;5.67;4.83;;;;;;;20.65;84.68;94891.69;5093351;28;20432;-78
2023/09/04 02:49:25;;;;;;;5.47;4.37;;;;;;;20.75;85.09;94888.69;5093983;28;20447;-78
2023/09/04 02:51:52;;;;;;;5.93;4.33;;;;;;;20.82;83.91;94894.91;5093608;28;20460;-78
2023/09/04 02:54:19;;;;;;;4.13;3.73;;;;;;;20.78;83.92;94886.44;5058099;28;20441;-78
2023/09/04 02:56:46;;;;;;;5.03;4.53;;;;;;;20.78;84.42;94889.13;5093580;28;20482;-78
2023/09/04 02:59:13;;;;;;;5.93;4.87;;;;;;;20.82;84.26;94889.59;5093471;28;20504;-79
2023/09/04 03:01:41;;;;;;;5.00;4.60;;;;;;;20.70;83.92;94882.09;5093515;28;20472;-78
2023/09/04 03:04:08;;;;;;;5.10;4.60;;;;;;;20.72;83.27;94884.56;5093136;28;20441;-78
2023/09/04 03:06:35;;;;;;;4.97;4.57;;;;;;;20.64;83.74;94879.38;5093224;28;20448;-78
2023/09/04 03:09:01;;;;;;;6.70;5.50;;;;;;;20.63;84.57;94875.06;5093385;28;20440;-79
2023/09/04 03:11:28;;;;;;;4.97;4.47;;;;;;;20.51;84.70;94879.22;5093417;28;20450;-78
2023/09/04 03:13:55;;;;;;;6.50;4.40;;;;;;;20.51;84.59;94877.38;5093750;28;20432;-78
2023/09/04 03:16:22;;;;;;;5.90;4.13;;;;;;;20.56;84.24;94874.19;5093716;28;20446;-78
2023/09/04 03:18:50;;;;;;;5.00;4.50;;;;;;;20.52;84.37;94872.88;5093357;28;20439;-78
2023/09/04 03:21:17;;;;;;;5.17;4.67;;;;;;;20.49;84.21;94876.75;5093294;28;20498;-78
2023/09/04 03:23:46;;;;;;;4.67;4.17;;;;;;;20.46;84.42;94876.31;5093692;28;20473;-78
2023/09/04 03:26:12;;;;;;;4.60;4.30;;;;;;;20.48;84.85;94874.28;5094058;28;20944;-77
2023/09/04 03:28:39;;;;;;;4.20;3.90;;;;;;;20.44;83.46;94870.34;5093016;28;20443;-78
2023/09/04 03:31:13;;;;;;;3.60;3.40;;;;;;;20.44;83.34;94870.34;5092961;28;20445;-78
2023/09/04 03:33:39;;;;;;;4.17;3.87;;;;;;;20.38;83.27;94872.75;5089355;28;20472;-78
2023/09/04 03:36:09;;;;;;;5.40;4.90;;;;;;;20.45;82.69;94880.00;5076524;28;20469;-78
2023/09/04 03:38:36;;;;;;;3.70;3.40;;;;;;;20.49;82.68;94881.25;5022052;28;20451;-78
2023/09/04 03:41:03;;;;;;;5.97;4.10;;;;;;;20.52;82.48;94880.88;5088638;28;20508;-79
2023/09/04 03:43:30;;;;;;;5.60;4.87;;;;;;;20.62;82.11;94886.75;5093089;28;20840;-78
2023/09/04 03:45:57;;;;;;;3.63;3.43;;;;;;;20.73;82.05;94878.22;5093164;28;20457;-79
2023/09/04 03:48:23;;;;;;;4.83;4.43;;;;;;;20.77;81.77;94878.63;5096757;28;20443;-79
2023/09/04 03:50:50;;;;;;;3.83;3.20;;;;;;;20.66;81.24;94883.50;5061190;28;20919;-78
2023/09/04 03:53:18;;;;;;;4.20;3.90;;;;;;;20.35;78.53;94889.13;5096793;28;20479;-79
2023/09/04 03:55:45;;;;;;;7.33;5.60;;;;;;;20.21;79.71;94892.66;5096540;28;20441;-78
2023/09/04 03:58:12;;;;;;;4.53;4.23;;;;;;;20.07;79.66;94893.53;5060942;28;20444;-79
2023/09/04 04:00:39;;;;;;;4.57;4.17;;;;;;;19.99;80.08;94888.34;5098295;28;20485;-78
2023/09/04 04:03:06;;;;;;;4.93;4.43;;;;;;;19.89;80.95;94888.59;5099952;28;20439;-78
2023/09/04 04:05:33;;;;;;;4.03;3.73;;;;;;;19.59;80.83;94898.47;5096996;28;21221;-78
2023/09/04 04:07:59;;;;;;;4.30;3.90;;;;;;;19.42;81.53;94894.34;5096625;28;20427;-78
2023/09/04 04:10:27;;;;;;;5.50;4.60;;;;;;;19.03;82.07;94892.75;5096288;28;20451;-78
2023/09/04 04:12:54;;;;;;;5.40;4.90;;;;;;;18.66;83.00;94895.44;5096391;28;20461;-78
2023/09/04 04:15:21;;;;;;;5.20;4.37;;;;;;;18.60;84.17;94893.47;5095781;28;20456;-77
2023/09/04 04:17:48;;;;;;;5.37;4.97;;;;;;;18.56;85.19;94890.34;5096019;28;20440;-78
2023/09/04 04:20:16;;;;;;;6.47;4.77;;;;;;;18.41;86.15;94895.59;5095904;28;20452;-78
2023/09/04 04:22:42;;;;;;;7.60;5.23;;;;;;;18.29;87.16;94894.38;5096611;28;20515;-78
2023/09/04 04:25:10;;;;;;;6.70;5.80;;;;;;;18.33;87.32;94893.00;5060053;28;20934;-81
2023/09/04 04:27:39;;;;;;;5.37;4.83;;;;;;;18.32;88.13;94887.88;5095676;28;20930;-80
2023/09/04 04:30:08;;;;;;;6.43;5.93;;;;;;;18.22;89.08;94894.25;5096523;28;20452;-78
2023/09/04 04:32:35;;;;;;;6.33;5.73;;;;;;;18.19;89.68;94886.63;5060735;28;20517;-78
2023/09/04 04:35:02;;;;;;;7.63;5.30;;;;;;;18.20;90.11;94884.78;5095386;28;20449;-78
2023/09/04 04:37:29;;;;;;;7.60;6.00;;;;;;;18.24;89.24;94881.63;5095217;28;20451;-78
2023/09/04 04:39:56;;;;;;;6.00;5.50;;;;;;;18.27;89.21;94877.78;5095675;28;20447;-78
2023/09/04 04:42:24;;;;;;;6.67;5.40;;;;;;;18.26;88.37;94873.47;5095334;28;20484;-78
2023/09/04 04:44:53;;;;;;;4.73;4.30;;;;;;;18.33;87.49;94889.53;5059765;28;20450;-78
2023/09/04 04:47:19;;;;;;;5.40;4.80;;;;;;;18.41;87.66;94884.97;5095342;28;21201;-78
2023/09/04 04:49:46;;;;;;;4.80;4.30;;;;;;;18.32;85.67;94887.88;5043092;28;20440;-77
2023/09/04 04:52:13;;;;;;;8.00;5.20;;;;;;;18.39;86.36;94886.16;5094966;28;20475;-77
2023/09/04 04:54:40;;;;;;;6.10;4.30;;;;;;;18.40;85.74;94891.28;5095045;28;20923;-77
2023/09/04 04:57:07;;;;;;;4.67;4.27;;;;;;;18.36;85.21;94892.66;5094692;28;20441;-77
2023/09/04 04:59:34;;;;;;;5.23;4.73;;;;;;;18.63;88.09;94898.44;5095267;28;20449;-77
2023/09/04 05:02:02;;;;;;;6.33;4.30;;;;;;;19.17;87.08;94901.75;5094858;28;20488;-77
2023/09/04 05:04:28;;;;;;;4.93;4.43;;;;;;;19.74;82.57;94891.31;5095215;28;20440;-76
2023/09/04 05:06:55;;;;;;;5.27;3.43;;;;;;;20.29;78.49;94899.72;5095146;28;20449;-77
2023/09/04 05:09:22;;;;;;;3.73;3.43;;;;;;;20.57;74.13;94905.16;5059557;28;20458;-77
2023/09/04 05:11:49;;;;;;;3.93;2.90;;;;;;;20.40;73.83;94900.06;5094834;28;20453;-77
2023/09/04 05:14:16;;;;;;;4.67;3.90;;;;;;;20.23;73.02;94887.13;5095082;28;21151;-77
2023/09/04 05:16:43;;;;;;;3.47;3.27;;;;;;;20.22;75.35;94877.47;5095222;28;20740;-77
2023/09/04 05:19:11;;;;;;;3.47;3.17;;;;;;;20.09;73.49;94871.00;5095029;28;20447;-77
2023/09/04 05:21:37;;;;;;;3.60;3.30;;;;;;;20.04;73.35;94875.25;5095090;28;20490;-77
2023/09/04 05:24:05;;;;;;;5.27;3.60;;;;;;;19.85;76.01;94881.19;5042322;28;20938;-77
2023/09/04 05:26:32;;;;;;;3.50;3.10;;;;;;;19.67;75.09;94873.63;5042116;28;20427;-77
2023/09/04 05:28:59;;;;;;;5.00;3.20;;;;;;;19.40;75.91;94872.41;5094897;28;20556;-77
2023/09/04 05:31:25;;;;;;;5.83;4.50;;;;;;;19.14;77.42;94870.22;5095564;28;20506;-78
2023/09/04 05:33:52;;;;;;;4.63;4.23;;;;;;;19.00;79.09;94879.00;5094528;28;20961;-78
2023/09/04 05:36:20;;;;;;;3.83;3.53;;;;;;;18.80;78.79;94870.72;5094511;28;20948;-77
2023/09/04 05:38:47;;;;;;;5.97;3.83;;;;;;;18.73;79.31;94867.13;5094753;28;20445;-78
2023/09/04 05:41:14;;;;;;;4.00;3.67;;;;;;;18.62;79.89;94865.72;5094359;28;20984;-77
2023/09/04 05:43:41;;;;;;;5.83;4.17;;;;;;;18.52;79.34;94857.16;5094297;28;20445;-78
2023/09/04 05:46:08;;;;;;;4.27;3.87;;;;;;;18.39;80.10;94863.06;5094085;28;20446;-77
2023/09/04 05:48:35;;;;;;;7.80;4.00;;;;;;;18.39;82.38;94860.41;5094420;28;20442;-77
2023/09/04 05:51:02;;;;;;;4.97;4.30;;;;;;;18.40;81.92;94853.25;5094715;28;20446;-77
2023/09/04 05:53:31;;;;;;;5.27;3.87;;;;;;;18.32;79.93;94845.38;5093969;28;20474;-77
2023/09/04 05:56:05;;;;;;;4.20;3.90;;;;;;;18.19;80.28;94843.28;5094317;28;20436;-77
2023/09/04 05:58:33;;;;;;;4.53;3.97;;;;;;;18.39;80.15;94847.13;5094227;28;20446;-78
2023/09/04 06:01:00;;;;;;;8.00;4.30;;;;;;;18.40;80.28;94853.25;5094233;28;20583;-77
2023/09/04 06:03:27;;;;;;;4.63;4.27;;;;;;;18.30;78.62;94860.66;5090747;28;20441;-78
2023/09/04 06:05:54;;;;;;;4.80;3.77;;;;;;;18.20;79.59;94847.59;5094180;28;20449;-77
2023/09/04 06:08:21;;;;;;;5.10;4.70;;;;;;;18.19;79.29;94851.25;5093804;28;20444;-77
2023/09/04 06:10:49;;;;;;;4.77;4.40;;;;;;;18.19;78.99;94854.75;5093090;28;20443;-77
2023/09/04 06:13:16;;;;;;;7.13;4.67;;;;;;;18.26;80.81;94862.84;5093943;28;20447;-77
2023/09/04 06:15:43;;;;;;;7.77;5.03;;;;;;;18.30;79.00;94863.31;5093919;28;20794;-78
2023/09/04 06:18:10;;;;;;;8.47;5.13;;;;;;;18.29;82.06;94865.16;5093782;28;20459;-77
2023/09/04 06:20:36;;;;;;;6.53;4.97;;;;;;;18.36;79.48;94865.25;5093698;28;20440;-78
2023/09/04 06:23:03;;;;;;;11.00;7.40;;;;;;;18.88;100.00;94862.66;5092476;28;20490;-80
2023/09/04 06:25:30;;;;;;;8.27;5.90;;;;;;;18.95;100.00;94868.91;5083197;28;20863;-80
2023/09/04 06:27:58;;;;;;;6.50;5.90;;;;;;;19.22;100.00;94863.97;5073325;28;20923;-83
2023/09/04 06:30:25;;;;;;;5.43;4.93;;;;;;;19.25;83.17;94868.91;5073385;28;20457;-77
2023/09/04 06:32:52;;;;;;;5.43;4.70;;;;;;;19.06;80.04;94865.78;5078617;28;20431;-77
2023/09/04 06:35:19;;;;;;;4.87;4.53;;;;;;;19.19;79.44;94878.47;5073175;28;20449;-77
2023/09/04 06:37:46;;;;;;;7.53;4.97;;;;;;;19.03;78.66;94882.09;5078117;28;20536;-77
2023/09/04 06:40:13;;;;;;;5.50;4.80;;;;;;;18.83;78.59;94875.69;5073447;28;20434;-77
2023/09/04 06:42:40;;;;;;;5.33;4.93;;;;;;;18.64;79.07;94881.50;5021368;28;20553;-76
2023/09/04 06:45:09;;;;;;;5.87;5.33;;;;;;;18.56;79.42;94885.84;5073272;28;20445;-77
2023/09/04 06:47:36;;;;;;;5.30;4.90;;;;;;;18.61;80.72;94884.47;5021762;28;20973;-77
2023/09/04 06:50:03;;;;;;;5.87;5.20;;;;;;;18.52;79.58;94897.03;5073208;28;20445;-78
2023/09/04 06:52:30;;;;;;;5.77;5.27;;;;;;;18.54;79.86;94892.34;5073201;28;20521;-77
2023/09/04 06:54:57;;;;;;;6.53;5.57;;;;;;;18.47;78.86;94894.88;5073361;28;20442;-77
2023/09/04 06:57:24;;;;;;;6.93;4.80;;;;;;;18.45;79.13;94896.88;5073793;28;20444;-77
2023/09/04 06:59:52;;;;;;;5.70;5.13;;;;;;;18.60;79.34;94896.13;5073802;28;20923;-76
2023/09/04 07:02:20;;;;;;;5.40;5.00;;;;;;;18.75;78.67;94905.81;5054690;28;20480;-77
2023/09/04 07:04:47;;;;;;;5.33;4.83;;;;;;;18.52;77.83;94899.69;5079787;28;20445;-76
2023/09/04 07:07:14;;;;;;;6.20;5.23;;;;;;;18.41;77.95;94905.41;5080852;28;20438;-76
2023/09/04 07:09:41;;;;;;;5.50;5.03;;;;;;;18.41;78.81;94908.88;5089702;28;20459;-77
2023/09/04 07:12:11;;;;;;;6.00;5.50;;;;;;;18.39;80.35;94900.25;5093268;28;20443;-77
2023/09/04 07:14:38;;;;;;;6.60;5.80;;;;;;;18.32;79.98;94904.63;5089172;28;20466;-78
2023/09/04 07:17:04;;;;;;;6.27;5.67;;;;;;;18.19;79.74;94907.03;5076463;28;20440;-77
2023/09/04 07:19:33;;;;;;;9.13;5.93;;;;;;;18.22;80.68;94906.72;5072945;28;20443;-76
2023/09/04 07:21:59;;;;;;;6.00;5.50;;;;;;;18.35;80.52;94898.97;5082789;28;20479;-77
2023/09/04 07:24:26;;;;;;;8.97;5.20;;;;;;;18.31;79.26;94897.66;5088770;28;20456;-77
2023/09/04 07:26:53;;;;;;;6.83;6.23;;;;;;;18.20;79.73;94900.72;5096253;28;20446;-77
2023/09/04 07:29:21;;;;;;;5.70;5.30;;;;;;;18.15;79.56;94909.22;5076453;28;20466;-76
2023/09/04 07:31:48;;;;;;;5.70;5.23;;;;;;;18.09;80.12;94903.78;5075830;28;20500;-76
2023/09/04 07:34:15;;;;;;;7.20;4.83;;;;;;;18.29;82.80;94906.81;5083695;28;20457;-77
2023/09/04 07:36:43;;;;;;;6.67;6.07;;;;;;;18.49;80.07;94903.50;5088804;28;20447;-79
2023/09/04 07:39:10;;;;;;;5.90;5.30;;;;;;;18.54;78.83;94903.81;5096449;28;20451;-76
2023/09/04 07:41:36;;;;;;;6.20;5.70;;;;;;;18.64;77.69;94910.72;5096386;28;20484;-77
2023/09/04 07:44:04;;;;;;;7.43;6.73;;;;;;;18.69;80.46;94911.03;5095664;28;20447;-77
2023/09/04 07:46:31;;;;;;;7.43;6.70;;;;;;;18.64;77.92;94908.91;5095914;28;20491;-77
2023/09/04 07:48:58;;;;;;;7.10;6.40;;;;;;;18.60;77.33;94906.75;5096042;28;20435;-77
2023/09/04 07:51:25;;;;;;;6.63;6.03;;;;;;;18.54;78.50;94908.31;5096190;28;20444;-76
2023/09/04 07:53:53;;;;;;;6.17;5.67;;;;;;;18.44;78.20;94905.88;5096085;28;20516;-77
2023/09/04 07:56:21;;;;;;;7.47;5.90;;;;;;;18.54;78.65;94908.31;5095855;28;20456;-77
2023/09/04 07:58:47;;;;;;;6.93;5.67;;;;;;;18.53;79.30;94902.16;5095680;28;20494;-77
2023/09/04 08:01:14;;;;;;;7.27;6.23;;;;;;;18.51;78.58;94904.16;5095628;28;20922;-77
2023/09/04 08:03:41;;;;;;;6.60;6.10;;;;;;;18.60;77.24;94909.41;5095177;28;20480;-76
2023/09/04 08:06:09;;;;;;;6.70;6.10;;;;;;;18.75;77.99;94907.63;5095170;28;20439;-76
2023/09/04 08:08:36;;;;;;;7.30;6.60;;;;;;;18.81;77.43;94912.25;5095072;28;20440;-77
2023/09/04 08:11:04;;;;;;;5.57;5.07;;;;;;;18.75;76.44;94912.97;5095534;28;20445;-77
2023/09/04 08:13:31;;;;;;;6.47;5.90;;;;;;;18.78;77.66;94901.97;5095185;28;20449;-77
2023/09/04 08:15:57;;;;;;;5.50;5.07;;;;;;;18.73;77.19;94909.66;5095124;28;20433;-77
2023/09/04 08:18:24;;;;;;;6.27;5.70;;;;;;;18.62;77.54;94910.91;5094884;28;20495;-77
2023/09/04 08:20:51;;;;;;;6.27;5.80;;;;;;;18.54;77.01;94914.44;5095019;28;20547;-77
2023/09/04 08:23:18;;;;;;;6.20;5.77;;;;;;;18.51;79.35;94908.66;5094836;28;20487;-77
2023/09/04 08:25:45;;;;;;;6.33;5.73;;;;;;;18.67;78.67;94911.19;5095309;28;20934;-77
2023/09/04 08:28:13;;;;;;;6.77;6.17;;;;;;;18.58;77.62;94913.06;5095525;28;20436;-77
2023/09/04 08:30:40;;;;;;;6.90;6.30;;;;;;;18.62;78.05;94910.06;5095347;28;20837;-77
2023/09/04 08:33:06;;;;;;;6.37;5.77;;;;;;;18.90;79.23;94921.81;5094321;28;20450;-77
2023/09/04 08:35:33;;;;;;;6.00;5.40;;;;;;;18.85;77.22;94914.38;5095119;28;20446;-77
2023/09/04 08:38:03;;;;;;;5.83;5.33;;;;;;;18.82;76.77;94922.72;5059655;28;20447;-77
2023/09/04 08:40:30;;;;;;;10.83;6.43;;;;;;;18.93;77.48;94918.78;5095043;28;20447;-77
2023/09/04 08:42:58;;;;;;;7.97;7.23;;;;;;;19.04;77.78;94915.66;5094933;28;20482;-77
2023/09/04 08:45:27;;;;;;;10.50;6.53;;;;;;;19.11;76.97;94911.31;5095022;28;20441;-77
2023/09/04 08:47:56;;;;;;;6.63;5.93;;;;;;;19.22;76.41;94911.84;5042511;28;20487;-77
2023/09/04 08:50:24;;;;;;;8.93;5.13;;;;;;;19.24;76.53;94908.00;5095367;28;20436;-77
2023/09/04 08:52:51;;;;;;;8.30;6.70;;;;;;;19.39;77.04;94908.03;5095234;28;20476;-77
2023/09/04 08:55:20;;;;;;;9.97;6.10;;;;;;;19.46;75.97;94908.94;5094878;28;20845;-78
2023/09/04 08:57:47;;;;;;;6.53;6.03;;;;;;;19.39;75.57;94908.03;5095472;28;20481;-77
2023/09/04 09:00:15;;;;;;;6.40;5.77;;;;;;;19.36;76.41;94919.00;5095436;28;20533;-77
2023/09/04 09:02:44;;;;;;;6.00;5.50;;;;;;;19.34;75.62;94916.53;5043319;28;20493;-77
2023/09/04 09:05:16;;;;;;;10.13;6.30;;;;;;;19.30;75.14;94917.91;5094774;28;20435;-77
2023/09/04 09:07:46;;;;;;;7.00;6.10;;;;;;;19.32;75.66;94925.69;5042616;28;20438;-77
2023/09/04 09:10:18;;;;;;;6.80;5.90;;;;;;;19.35;75.06;94922.69;5094337;28;20445;-77
2023/09/04 09:12:45;;;;;;;8.03;6.20;;;;;;;19.29;75.09;94926.91;4993097;28;20520;-77
2023/09/04 09:15:12;;;;;;;7.03;5.93;;;;;;;19.44;75.42;94919.75;5060083;28;20946;-77
2023/09/04 09:17:53;;;;;;;9.53;6.33;;;;;;;19.51;76.69;94925.16;5094231;28;20520;-76
2023/09/04 09:20:33;;;;;;;7.10;6.47;;;;;;;19.44;74.56;94919.75;5094262;28;20789;-77
2023/09/04 09:23:00;;;;;;;6.93;6.33;;;;;;;19.30;75.34;94927.72;5094574;28;20819;-77
2023/09/04 09:25:28;;;;;;;15.17;7.33;;;;;;;19.39;76.55;94929.31;5094425;28;20450;-77
2023/09/04 09:28:00;;;;;;;7.43;6.63;;;;;;;19.36;75.01;94929.66;5094058;28;20943;-77
2023/09/04 09:30:30;;;;;;;7.77;7.07;;;;;;;19.25;74.48;94932.78;5059051;28;20876;-77
2023/09/04 09:32:59;;;;;;;6.90;6.10;;;;;;;19.12;75.42;94930.75;5058456;28;20442;-76
2023/09/04 09:35:26;;;;;;;6.80;6.13;;;;;;;19.08;75.92;94929.44;5094451;28;20430;-77
2023/09/04 09:37:55;;;;;;;11.40;7.53;;;;;;;18.95;77.28;94931.91;5093804;28;20490;-77
2023/09/04 09:40:22;;;;;;;9.20;7.30;;;;;;;18.98;78.29;94931.53;5094377;28;20476;-77
2023/09/04 09:42:49;;;;;;;14.33;7.63;;;;;;;19.03;79.97;94932.63;5093942;28;20507;-77
2023/09/04 09:45:16;;;;;;;8.30;6.67;;;;;;;18.98;79.67;94935.03;5092860;28;20439;-77
2023/09/04 09:47:43;;;;;;;7.63;6.93;;;;;;;18.95;80.19;94938.03;5093867;28;20448;-77
2023/09/04 09:50:12;;;;;;;9.23;7.00;;;;;;;18.92;80.58;94932.25;5094110;28;21189;-77
2023/09/04 09:52:38;;;;;;;8.40;7.00;;;;;;;18.86;81.31;94931.16;5038044;28;20489;-77
2023/09/04 09:55:07;;;;;;;10.33;7.80;;;;;;;18.85;81.14;94932.16;5073567;28;20473;-77
2023/09/04 09:57:36;;;;;;;9.00;7.60;;;;;;;18.86;82.07;94926.66;5073315;28;20466;-77
2023/09/04 10:00:04;;;;;;;7.20;6.60;;;;;;;18.93;82.77;94931.25;5073258;28;20439;-77
2023/09/04 10:02:31;;;;;;;10.17;7.63;;;;;;;18.86;82.08;94933.81;5073413;28;20530;-77
2023/09/04 10:04:59;;;;;;;7.83;7.03;;;;;;;18.84;81.46;94927.84;5072981;28;20438;-77
2023/09/04 10:07:30;;;;;;;9.13;7.63;;;;;;;18.85;81.25;94927.66;5072759;28;20450;-76
2023/09/04 10:10:03;;;;;;;11.30;8.80;;;;;;;18.94;81.82;94931.06;5073077;28;20445;-77
2023/09/04 10:12:35;;;;;;;11.13;9.27;;;;;;;19.01;81.97;94928.50;5073695;28;20452;-77
2023/09/04 10:15:02;;;;;;;10.30;9.30;;;;;;;19.01;83.85;94929.34;5038598;28;20527;-77
2023/09/04 10:17:37;;;;;;;13.90;9.03;;;;;;;18.86;82.75;94931.97;5073287;28;20929;-77
2023/09/04 10:20:06;;;;;;;12.83;9.27;;;;;;;18.86;84.51;94928.50;5073134;28;20450;-77
2023/09/04 10:22:37;;;;;;;11.77;9.60;;;;;;;18.83;84.67;94928.84;5073194;28;20487;-77
2023/09/04 10:25:10;;;;;;;9.90;8.60;;;;;;;18.84;83.57;94930.50;5072665;28;20956;-77
2023/09/04 10:27:42;;;;;;;9.23;8.43;;;;;;;18.79;83.38;94923.06;5073275;28;20433;-77
2023/09/04 10:30:14;;;;;;;12.77;7.63;;;;;;;18.77;84.31;94921.56;5072808;28;20437;-77
2023/09/04 10:32:41;;;;;;;10.20;8.93;;;;;;;18.76;85.96;94933.22;5073158;28;20437;-77
2023/09/04 10:35:09;;;;;;;10.23;9.23;;;;;;;18.64;87.13;94924.84;5072566;28;20449;-77
2023/09/04 10:37:38;;;;;;;10.00;9.00;;;;;;;18.56;88.04;94933.69;5037361;28;20439;-77
2023/09/04 10:40:09;;;;;;;8.83;7.93;;;;;;;18.52;89.13;94931.56;5037758;28;20874;-77
2023/09/04 10:42:36;;;;;;;9.80;8.77;;;;;;;18.43;89.65;94937.94;5037978;28;20512;-77
2023/09/04 10:45:12;;;;;;;10.10;9.17;;;;;;;18.52;91.07;94937.72;5072444;28;20435;-77
2023/09/04 10:47:45;;;;;;;12.83;10.93;;;;;;;18.52;92.29;94943.03;5072659;28;20473;-77
2023/09/04 10:50:29;;;;;;;12.47;10.03;;;;;;;18.48;92.52;94948.84;5072857;28;20475;-77
2023/09/04 10:52:59;;;;;;;10.87;9.80;;;;;;;18.42;93.83;94942.41;5083451;28;20480;-77
2023/09/04 10:55:25;;;;;;;33.63;10.80;;;;;;;18.34;93.88;94944.31;5093134;28;20440;-77
2023/09/04 10:57:57;;;;;;;11.60;9.77;;;;;;;18.41;94.50;94943.41;5093051;28;20439;-77
2023/09/04 11:00:29;;;;;;;11.57;10.47;;;;;;;18.32;95.71;94941.00;5092538;28;20919;-77
2023/09/04 11:02:56;;;;;;;12.23;9.70;;;;;;;18.30;95.06;94950.97;5093186;28;20479;-77
2023/09/04 11:05:23;;;;;;;23.93;9.57;;;;;;;18.27;97.33;94949.50;5098179;28;20473;-78
2023/09/04 11:07:50;;;;;;;11.50;9.60;;;;;;;18.20;97.96;94948.53;5094632;28;20434;-78
2023/09/04 11:10:38;;;;;;;10.73;9.70;;;;;;;18.27;98.42;94952.16;5093123;28;20522;-77
2023/09/04 11:13:05;;;;;;;10.07;9.03;;;;;;;18.10;98.26;94946.09;5092625;28;20453;-78
2023/09/04 11:15:35;;;;;;;9.90;8.87;;;;;;;18.24;97.65;94955.16;5092541;28;20492;-78
2023/09/04 11:18:14;;;;;;;8.30;7.50;;;;;;;17.98;98.63;94944.84;5040338;28;20922;-77
2023/09/04 11:20:46;;;;;;;9.67;8.67;;;;;;;17.99;97.65;94956.31;5092979;28;20491;-77
2023/09/04 11:23:12;;;;;;;10.33;8.90;;;;;;;17.96;98.02;94941.56;5092991;28;20483;-78
2023/09/04 11:25:43;;;;;;;9.43;8.33;;;;;;;18.02;99.55;94945.34;5040423;28;20466;-78
2023/09/04 11:28:10;;;;;;;12.80;8.20;;;;;;;18.07;99.59;94945.63;5039975;28;20455;-77
2023/09/04 11:30:37;;;;;;;12.60;9.00;;;;;;;18.13;100.00;94948.41;5092239;28;20445;-78
2023/09/04 11:33:04;;;;;;;9.03;8.17;;;;;;;18.20;100.00;94948.53;5092621;28;20442;-78
2023/09/04 11:35:31;;;;;;;9.53;8.43;;;;;;;18.16;99.31;94948.06;5092219;28;20434;-78